Terminal Aerodrome Forecast
Issued by NWS Lake Charles, LA

Home | Current Version | Previous Version | Text Only | Print | Product List | Glossary On
Versions: 1 2 3 4 5 6 7 8 9 10 11 12 13 14 15 16
000
FTUS44 KLCH 232323
TAFLFT
TAF
KLFT 232323Z 2400/2424 19009KT P6SM SCT025 SCT250
     FM240900 19004KT P6SM VCTS SCT025 BKN050CB
     FM241400 22005KT P6SM VCTS SCT025 BKN050CB
      TEMPO 2420/2424 4SM -TSRA BKN025CB=

USA.gov is the U.S. government's official web portal to all federal, state and local government web resources and services.